createdAt,value
2023-02-19T00:01:33.052Z,13.73
2023-02-19T00:04:11.021Z,24.38
2023-02-19T00:06:37.860Z,26.77
2023-02-19T00:09:05.395Z,26.80
2023-02-19T00:11:34.436Z,16.23
2023-02-19T00:14:03.304Z,16.05
2023-02-19T00:16:39.005Z,19.67
2023-02-19T00:19:11.718Z,20.52
2023-02-19T00:21:38.521Z,15.50
2023-02-19T00:24:07.017Z,10.00
2023-02-19T00:26:34.719Z,13.93
2023-02-19T00:29:02.369Z,11.40
2023-02-19T00:31:32.998Z,12.95
2023-02-19T00:34:05.694Z,19.95
2023-02-19T00:36:37.908Z,12.10
2023-02-19T00:39:07.571Z,18.58
2023-02-19T00:41:34.678Z,9.75
2023-02-19T00:44:05.319Z,12.63
2023-02-19T00:46:48.627Z,12.00
2023-02-19T00:49:21.287Z,12.70
2023-02-19T00:51:49.048Z,16.92
2023-02-19T00:54:16.853Z,16.35
2023-02-19T00:56:43.640Z,10.80
2023-02-19T00:59:11.000Z,19.48
2023-02-19T01:01:38.264Z,17.77
2023-02-19T01:04:06.752Z,14.23
2023-02-19T01:06:34.670Z,14.13
2023-02-19T01:09:01.651Z,14.70
2023-02-19T01:11:28.524Z,17.85
2023-02-19T01:13:59.638Z,11.63
2023-02-19T01:16:27.612Z,20.20
2023-02-19T01:18:54.890Z,19.23
2023-02-19T01:21:24.927Z,16.20
2023-02-19T01:23:53.289Z,17.45
2023-02-19T01:26:22.990Z,14.33
2023-02-19T01:28:50.370Z,20.15
2023-02-19T01:31:23.072Z,20.55
2023-02-19T01:33:52.623Z,20.17
2023-02-19T01:36:19.788Z,17.30
2023-02-19T01:38:47.368Z,16.93
2023-02-19T01:41:17.296Z,18.48
2023-02-19T01:44:04.095Z,14.57
2023-02-19T01:46:35.308Z,13.10
2023-02-19T01:49:16.251Z,15.38
2023-02-19T01:51:48.780Z,13.73
2023-02-19T01:54:20.489Z,17.92
2023-02-19T01:56:48.692Z,13.48
2023-02-19T01:59:16.845Z,16.58
2023-02-19T02:01:43.925Z,19.23
2023-02-19T02:04:13.435Z,20.23
2023-02-19T02:07:01.505Z,17.00
2023-02-19T02:09:49.372Z,17.63
2023-02-19T02:12:16.283Z,14.23
2023-02-19T02:14:47.831Z,17.13
2023-02-19T02:18:02.553Z,13.60
2023-02-19T02:20:38.594Z,15.57
2023-02-19T02:23:26.884Z,15.75
2023-02-19T02:25:56.402Z,9.80
2023-02-19T02:28:39.096Z,9.77
2023-02-19T02:31:19.327Z,8.63
2023-02-19T02:34:01.203Z,16.10
2023-02-19T02:36:33.962Z,11.77
2023-02-19T02:39:05.080Z,11.68
2023-02-19T02:41:35.864Z,14.20
2023-02-19T02:44:02.716Z,10.87
2023-02-19T02:46:34.506Z,10.98
2023-02-19T02:49:10.734Z,13.20
2023-02-19T02:51:45.747Z,9.30
2023-02-19T02:54:41.523Z,12.73
2023-02-19T02:57:14.979Z,10.43
2023-02-19T02:59:49.127Z,12.38
2023-02-19T03:02:25.156Z,14.07
2023-02-19T03:05:24.183Z,14.05
2023-02-19T03:07:57.330Z,16.25
2023-02-19T03:10:42.767Z,15.37
2023-02-19T03:13:33.003Z,16.75
2023-02-19T03:16:28.452Z,15.05
2023-02-19T03:19:18.397Z,14.80
2023-02-19T03:21:53.209Z,8.70
2023-02-19T03:24:45.340Z,14.10
2023-02-19T03:27:14.410Z,12.90
2023-02-19T03:29:47.312Z,11.38
2023-02-19T03:32:34.332Z,9.48
2023-02-19T03:35:07.657Z,13.32
2023-02-19T03:38:18.546Z,16.23
2023-02-19T03:41:24.214Z,16.23
2023-02-19T03:44:09.165Z,9.70
2023-02-19T03:46:45.472Z,9.38
2023-02-19T03:49:40.881Z,13.05
2023-02-19T03:52:22.084Z,13.87
2023-02-19T03:55:03.683Z,14.13
2023-02-19T03:57:39.318Z,10.48
2023-02-19T04:00:23.725Z,14.90
2023-02-19T04:03:11.906Z,19.70
2023-02-19T04:05:46.098Z,10.37
2023-02-19T04:08:17.232Z,17.73
2023-02-19T04:10:50.426Z,9.25
2023-02-19T04:13:42.095Z,15.85
2023-02-19T04:16:13.674Z,9.73
2023-02-19T04:18:44.016Z,13.87
2023-02-19T04:21:11.588Z,12.63
2023-02-19T04:23:44.048Z,9.48
2023-02-19T04:26:12.527Z,9.57
2023-02-19T04:28:40.116Z,13.48
2023-02-19T04:31:07.131Z,10.77
2023-02-19T04:33:34.151Z,11.38
2023-02-19T04:36:00.971Z,16.45
2023-02-19T04:38:27.746Z,13.55
2023-02-19T04:40:54.492Z,12.20
2023-02-19T04:43:21.367Z,12.97
2023-02-19T04:45:48.148Z,10.48
2023-02-19T04:48:14.909Z,13.35
2023-02-19T04:50:41.717Z,9.88
2023-02-19T04:53:08.632Z,10.77
2023-02-19T04:55:39.631Z,14.80
2023-02-19T04:58:06.401Z,11.98
2023-02-19T05:00:34.087Z,13.15
2023-02-19T05:03:01.496Z,14.85
2023-02-19T05:05:28.346Z,12.88
2023-02-19T05:07:55.092Z,10.20
2023-02-19T05:10:21.873Z,15.10
2023-02-19T05:12:48.665Z,10.25
2023-02-19T05:15:15.428Z,12.52
2023-02-19T05:17:42.149Z,12.52
2023-02-19T05:20:09.378Z,13.17
2023-02-19T05:22:36.172Z,15.38
2023-02-19T05:25:03.016Z,9.82
2023-02-19T05:27:30.903Z,9.43
2023-02-19T05:29:57.695Z,14.80
2023-02-19T05:32:24.515Z,13.37
2023-02-19T05:34:51.616Z,11.25
2023-02-19T05:37:18.399Z,13.32
2023-02-19T05:39:45.179Z,17.13
2023-02-19T05:42:13.910Z,11.20
2023-02-19T05:44:40.962Z,12.30
2023-02-19T05:47:07.755Z,14.05
2023-02-19T05:49:34.489Z,10.02
2023-02-19T05:52:01.317Z,13.07
2023-02-19T05:54:32.052Z,14.05
2023-02-19T05:56:58.843Z,13.17
2023-02-19T05:59:26.660Z,18.38
2023-02-19T06:01:54.910Z,17.65
2023-02-19T06:04:22.047Z,17.88
2023-02-19T06:06:49.347Z,10.77
2023-02-19T06:09:16.182Z,13.80
2023-02-19T06:11:43.586Z,12.15
2023-02-19T06:14:14.880Z,12.35
2023-02-19T06:16:41.923Z,14.75
2023-02-19T06:19:09.159Z,15.77
2023-02-19T06:21:35.994Z,10.00
2023-02-19T06:24:08.214Z,12.10
2023-02-19T06:26:35.422Z,13.93
2023-02-19T06:29:02.245Z,12.70
2023-02-19T06:31:29.084Z,20.00
2023-02-19T06:33:55.965Z,15.30
2023-02-19T06:36:23.888Z,13.68
2023-02-19T06:38:50.816Z,16.95
2023-02-19T06:41:18.116Z,15.18
2023-02-19T06:43:46.384Z,13.55
2023-02-19T06:46:13.669Z,14.67
2023-02-19T06:48:42.553Z,13.57
2023-02-19T06:51:12.976Z,14.45
2023-02-19T06:53:39.936Z,13.60
2023-02-19T06:56:20.733Z,16.20
2023-02-19T06:58:47.522Z,17.27
2023-02-19T07:01:14.326Z,13.98
2023-02-19T07:03:41.124Z,12.60
2023-02-19T07:06:08.319Z,16.15
2023-02-19T07:08:35.148Z,14.73
2023-02-19T07:11:01.848Z,15.73
2023-02-19T07:13:28.603Z,16.38
2023-02-19T07:15:59.966Z,13.93
2023-02-19T07:18:26.997Z,17.23
2023-02-19T07:20:53.710Z,15.55
2023-02-19T07:23:20.558Z,13.63
2023-02-19T07:25:47.303Z,13.23
2023-02-19T07:28:14.061Z,13.20
2023-02-19T07:30:40.847Z,18.17
2023-02-19T07:33:10.294Z,23.30
2023-02-19T07:35:37.205Z,17.67
2023-02-19T07:38:04.002Z,13.38
2023-02-19T07:40:30.728Z,15.20
2023-02-19T07:42:59.529Z,16.42
2023-02-19T07:45:26.339Z,13.85
2023-02-19T07:47:53.036Z,19.40
2023-02-19T07:50:19.745Z,16.23
2023-02-19T07:52:46.510Z,17.95
2023-02-19T07:55:13.252Z,17.67
2023-02-19T07:57:39.941Z,15.68
2023-02-19T08:00:07.020Z,15.23
2023-02-19T08:02:57.782Z,18.13
2023-02-19T08:05:24.525Z,15.90
2023-02-19T08:07:51.323Z,23.05
2023-02-19T08:10:36.499Z,23.38
2023-02-19T08:13:22.620Z,17.17
2023-02-19T08:15:55.144Z,21.30
2023-02-19T08:18:25.404Z,23.80
2023-02-19T08:20:52.871Z,22.90
2023-02-19T08:23:22.777Z,26.60
2023-02-19T08:25:51.187Z,23.60
2023-02-19T08:28:19.249Z,17.70
2023-02-19T08:30:47.449Z,19.15
2023-02-19T08:33:16.812Z,15.48
2023-02-19T08:35:43.876Z,20.05
2023-02-19T08:38:12.078Z,22.17
2023-02-19T08:40:40.207Z,18.90
2023-02-19T08:43:12.772Z,19.80
2023-02-19T08:45:41.662Z,16.88
2023-02-19T08:48:09.264Z,16.27
2023-02-19T08:50:36.122Z,19.13
2023-02-19T08:53:04.141Z,17.40
2023-02-19T08:55:30.906Z,15.50
2023-02-19T08:57:57.940Z,17.42
2023-02-19T09:00:24.779Z,17.23
2023-02-19T09:02:51.513Z,20.10
2023-02-19T09:05:18.335Z,21.67
2023-02-19T09:07:45.028Z,17.77
2023-02-19T09:10:14.034Z,23.08
2023-02-19T09:12:41.139Z,17.63
2023-02-19T09:15:08.346Z,16.17
2023-02-19T09:17:35.096Z,14.52
2023-02-19T09:20:01.793Z,16.67
2023-02-19T09:22:28.568Z,20.45
2023-02-19T09:24:55.532Z,20.83
2023-02-19T09:27:22.320Z,17.07
2023-02-19T09:29:49.037Z,17.85
2023-02-19T09:32:17.152Z,25.17
2023-02-19T09:34:45.648Z,24.98
2023-02-19T09:37:12.438Z,23.08
2023-02-19T09:39:39.148Z,23.13
2023-02-19T09:42:17.756Z,19.58
2023-02-19T09:44:48.370Z,17.60
2023-02-19T09:47:21.228Z,16.58
2023-02-19T09:49:51.286Z,23.63
2023-02-19T09:52:29.134Z,19.17
2023-02-19T09:54:59.431Z,13.85
2023-02-19T09:57:28.229Z,17.05
2023-02-19T10:00:05.095Z,13.32
2023-02-19T10:02:32.191Z,15.32
2023-02-19T10:04:59.532Z,13.60
2023-02-19T10:07:39.272Z,10.25
2023-02-19T10:10:15.105Z,4.35
2023-02-19T10:12:47.126Z,6.30
2023-02-19T10:15:33.490Z,3.35
2023-02-19T10:18:00.452Z,3.10
2023-02-19T10:20:27.975Z,5.55
2023-02-19T10:23:03.842Z,3.65
2023-02-19T10:25:32.035Z,5.15
2023-02-19T10:28:02.701Z,7.07
2023-02-19T10:30:35.657Z,4.27
2023-02-19T10:33:15.301Z,3.67
2023-02-19T10:35:57.306Z,4.57
2023-02-19T10:38:40.023Z,4.55
2023-02-19T10:41:20.787Z,3.72
2023-02-19T10:43:56.479Z,3.43
2023-02-19T10:46:26.982Z,4.05
2023-02-19T10:48:58.022Z,3.40
2023-02-19T10:51:40.609Z,2.13
2023-02-19T10:54:32.768Z,4.43
2023-02-19T10:57:15.920Z,3.23
2023-02-19T11:00:01.800Z,4.13
2023-02-19T11:02:30.973Z,4.97
2023-02-19T11:05:19.946Z,6.72
2023-02-19T11:07:54.814Z,3.85
2023-02-19T11:10:28.874Z,5.93
2023-02-19T11:13:01.542Z,5.30
2023-02-19T11:15:36.358Z,5.75
2023-02-19T11:18:11.862Z,4.85
2023-02-19T11:20:49.280Z,4.53
2023-02-19T11:23:22.215Z,5.67
2023-02-19T11:25:51.001Z,4.28
2023-02-19T11:28:32.735Z,6.72
2023-02-19T11:31:34.154Z,6.20
2023-02-19T11:34:20.966Z,2.95
2023-02-19T11:36:54.308Z,3.80
2023-02-19T11:39:28.921Z,3.22
2023-02-19T11:42:12.600Z,3.40
2023-02-19T11:45:05.670Z,2.85
2023-02-19T11:47:51.077Z,6.45
2023-02-19T11:50:45.291Z,3.60
2023-02-19T11:53:37.270Z,3.15
2023-02-19T11:56:35.957Z,2.88
2023-02-19T11:59:05.283Z,4.20
2023-02-19T12:01:35.065Z,2.42
2023-02-19T12:04:25.502Z,3.40
2023-02-19T12:07:06.489Z,3.47
2023-02-19T12:10:14.540Z,3.63
2023-02-19T12:12:49.368Z,3.92
2023-02-19T12:15:20.097Z,3.17
2023-02-19T12:18:07.701Z,3.97
2023-02-19T12:20:52.510Z,3.70
2023-02-19T12:23:19.175Z,9.70
2023-02-19T12:26:21.404Z,6.95
2023-02-19T12:29:16.282Z,3.28
2023-02-19T12:32:37.611Z,3.47
2023-02-19T12:35:26.896Z,4.13
2023-02-19T12:38:16.600Z,4.20
2023-02-19T12:41:15.640Z,3.78
2023-02-19T12:43:52.867Z,5.05
2023-02-19T12:46:27.824Z,3.23
2023-02-19T12:49:33.498Z,4.30
2023-02-19T12:52:15.607Z,2.92
2023-02-19T12:54:45.602Z,3.53
2023-02-19T12:57:24.223Z,3.30
2023-02-19T13:00:07.347Z,3.37
2023-02-19T13:02:41.977Z,3.08
2023-02-19T13:05:46.175Z,2.95
2023-02-19T13:08:21.200Z,3.20
2023-02-19T13:10:56.509Z,3.75
2023-02-19T13:13:42.626Z,4.40
2023-02-19T13:16:18.730Z,4.15
2023-02-19T13:18:53.989Z,13.18
2023-02-19T13:21:50.531Z,2.90
2023-02-19T13:24:40.870Z,3.95
2023-02-19T13:27:37.005Z,3.80
2023-02-19T13:30:28.286Z,3.20
2023-02-19T13:32:57.779Z,3.42
2023-02-19T13:35:41.160Z,3.05
2023-02-19T13:38:11.971Z,3.28
2023-02-19T13:40:52.275Z,3.90
2023-02-19T13:43:29.161Z,4.93
2023-02-19T13:46:08.457Z,3.63
2023-02-19T13:48:37.984Z,4.00
2023-02-19T13:51:21.557Z,4.00
2023-02-19T13:53:49.308Z,3.13
2023-02-19T13:56:34.239Z,3.70
2023-02-19T13:59:25.737Z,3.10
2023-02-19T14:01:58.537Z,3.30
2023-02-19T14:05:07.475Z,4.07
2023-02-19T14:07:55.431Z,2.67
2023-02-19T14:10:57.952Z,2.40
2023-02-19T14:13:49.338Z,7.03
2023-02-19T14:16:28.281Z,3.33
2023-02-19T14:18:56.259Z,2.70
2023-02-19T14:21:37.526Z,3.07
2023-02-19T14:24:05.248Z,2.10
2023-02-19T14:26:33.943Z,3.95
2023-02-19T14:29:01.557Z,3.50
2023-02-19T14:31:38.234Z,3.03
2023-02-19T14:34:13.899Z,1.87
2023-02-19T14:36:48.842Z,1.70
2023-02-19T14:39:37.870Z,2.33
2023-02-19T14:42:15.901Z,3.72
2023-02-19T14:44:49.914Z,3.05
2023-02-19T14:47:20.968Z,2.20
2023-02-19T14:50:01.467Z,1.55
2023-02-19T14:52:36.636Z,1.88
2023-02-19T14:55:35.103Z,2.22
2023-02-19T14:58:07.394Z,5.38
2023-02-19T15:00:40.971Z,5.90
2023-02-19T15:03:34.487Z,2.72
2023-02-19T15:06:08.318Z,2.42
2023-02-19T15:08:45.158Z,2.00
2023-02-19T15:11:17.975Z,1.58
2023-02-19T15:13:52.188Z,2.50
2023-02-19T15:16:21.156Z,2.30
2023-02-19T15:18:50.055Z,3.03
2023-02-19T15:21:25.628Z,2.05
2023-02-19T15:24:04.148Z,2.88
2023-02-19T15:26:52.170Z,2.13
2023-02-19T15:29:24.926Z,5.05
2023-02-19T15:31:56.238Z,2.03
2023-02-19T15:34:27.829Z,1.65
2023-02-19T15:37:00.320Z,3.33
2023-02-19T15:39:35.056Z,1.97
2023-02-19T15:42:03.946Z,2.58
2023-02-19T15:44:57.849Z,3.65
2023-02-19T15:47:36.566Z,4.05
2023-02-19T15:50:15.299Z,2.80
2023-02-19T15:52:59.603Z,6.87
2023-02-19T15:55:35.032Z,3.78
2023-02-19T15:58:31.903Z,3.38
2023-02-19T16:01:08.301Z,1.75
2023-02-19T16:03:35.832Z,2.53
2023-02-19T16:06:11.275Z,3.03
2023-02-19T16:08:40.368Z,2.95
2023-02-19T16:11:23.365Z,3.33
2023-02-19T16:13:51.802Z,3.70
2023-02-19T16:16:46.026Z,3.28
2023-02-19T16:19:12.883Z,4.30
2023-02-19T16:21:43.622Z,4.60
2023-02-19T16:24:26.018Z,3.53
2023-02-19T16:26:52.955Z,4.68
2023-02-19T16:29:31.679Z,4.70
2023-02-19T16:32:01.429Z,5.53
2023-02-19T16:34:34.234Z,4.75
2023-02-19T16:37:02.732Z,4.13
2023-02-19T16:39:30.273Z,4.55
2023-02-19T16:42:00.121Z,5.38
2023-02-19T16:44:31.047Z,3.40
2023-02-19T16:47:02.336Z,4.85
2023-02-19T16:49:29.223Z,4.57
2023-02-19T16:51:56.925Z,5.13
2023-02-19T16:54:23.633Z,4.55
2023-02-19T16:56:50.348Z,6.00
2023-02-19T16:59:17.029Z,4.50
2023-02-19T17:01:43.908Z,5.13
2023-02-19T17:04:13.178Z,5.50
2023-02-19T17:06:40.312Z,5.40
2023-02-19T17:09:08.567Z,5.90
2023-02-19T17:11:35.953Z,6.60
2023-02-19T17:14:03.088Z,5.03
2023-02-19T17:16:34.270Z,4.93
2023-02-19T17:19:02.203Z,7.20
2023-02-19T17:21:31.836Z,4.83
2023-02-19T17:23:58.553Z,6.78
2023-02-19T17:26:28.200Z,5.75
2023-02-19T17:29:02.638Z,3.92
2023-02-19T17:31:29.674Z,6.40
2023-02-19T17:33:56.452Z,4.80
2023-02-19T17:36:33.878Z,3.67
2023-02-19T17:39:02.459Z,4.28
2023-02-19T17:41:29.338Z,4.10
2023-02-19T17:43:56.146Z,6.70
2023-02-19T17:46:25.491Z,5.00
2023-02-19T17:48:53.638Z,4.90
2023-02-19T17:51:20.889Z,5.18
2023-02-19T17:53:47.666Z,4.57
2023-02-19T17:56:19.714Z,5.88
2023-02-19T17:58:46.961Z,5.60
2023-02-19T18:01:14.320Z,3.92
2023-02-19T18:03:41.298Z,5.20
2023-02-19T18:06:08.406Z,3.50
2023-02-19T18:08:35.780Z,4.25
2023-02-19T18:11:03.005Z,4.70
2023-02-19T18:13:29.818Z,3.20
2023-02-19T18:15:56.554Z,5.38
2023-02-19T18:18:23.276Z,3.28
2023-02-19T18:20:50.440Z,3.88
2023-02-19T18:23:17.375Z,5.27
2023-02-19T18:25:44.135Z,3.80
2023-02-19T18:28:11.048Z,4.45
2023-02-19T18:30:37.910Z,5.60
2023-02-19T18:33:05.063Z,4.65
2023-02-19T18:35:33.667Z,5.13
2023-02-19T18:38:01.674Z,4.90
2023-02-19T18:40:28.893Z,4.85
2023-02-19T18:42:56.043Z,4.93
2023-02-19T18:45:22.947Z,4.32
2023-02-19T18:47:50.821Z,4.50
2023-02-19T18:50:18.954Z,4.63
2023-02-19T18:52:45.770Z,3.72
2023-02-19T18:55:13.186Z,3.70
2023-02-19T18:57:39.945Z,4.55
2023-02-19T19:00:07.546Z,4.00
2023-02-19T19:02:48.401Z,4.13
2023-02-19T19:05:24.005Z,4.07
2023-02-19T19:07:52.833Z,3.60
2023-02-19T19:10:20.207Z,5.25
2023-02-19T19:12:47.184Z,6.97
2023-02-19T19:15:17.089Z,5.00
2023-02-19T19:17:44.962Z,5.35
2023-02-19T19:20:11.983Z,5.03
2023-02-19T19:22:39.115Z,5.97
2023-02-19T19:25:06.224Z,5.53
2023-02-19T19:27:32.941Z,8.50
2023-02-19T19:29:59.679Z,5.57
2023-02-19T19:32:26.395Z,4.88
2023-02-19T19:34:53.207Z,5.82
2023-02-19T19:37:19.944Z,6.53
2023-02-19T19:39:46.678Z,8.48
2023-02-19T19:42:13.440Z,7.35
2023-02-19T19:44:40.135Z,7.47
2023-02-19T19:47:06.851Z,4.70
2023-02-19T19:49:33.684Z,5.00
2023-02-19T19:52:01.142Z,4.47
2023-02-19T19:54:28.683Z,4.38
2023-02-19T19:56:55.630Z,5.13
2023-02-19T19:59:23.093Z,4.63
2023-02-19T20:01:57.007Z,4.33
2023-02-19T20:04:25.149Z,5.15
2023-02-19T20:06:52.123Z,4.95
2023-02-19T20:09:19.346Z,4.30
2023-02-19T20:11:51.434Z,3.92
2023-02-19T20:14:20.095Z,5.27
2023-02-19T20:16:47.616Z,5.60
2023-02-19T20:19:15.652Z,3.70
2023-02-19T20:21:50.177Z,4.28
2023-02-19T20:24:26.198Z,5.38
2023-02-19T20:26:59.209Z,4.07
2023-02-19T20:29:31.633Z,4.28
2023-02-19T20:32:00.012Z,3.65
2023-02-19T20:34:27.317Z,6.50
2023-02-19T20:36:54.407Z,5.22
2023-02-19T20:39:22.151Z,4.13
2023-02-19T20:41:51.007Z,4.30
2023-02-19T20:44:19.160Z,5.50
2023-02-19T20:46:48.616Z,5.38
2023-02-19T20:49:17.364Z,4.65
2023-02-19T20:51:49.963Z,6.77
2023-02-19T20:54:20.873Z,5.43
2023-02-19T20:56:50.173Z,7.43
2023-02-19T20:59:18.113Z,4.65
2023-02-19T21:01:44.980Z,5.22
2023-02-19T21:04:11.837Z,10.10
2023-02-19T21:06:39.125Z,7.00
2023-02-19T21:09:06.380Z,8.48
2023-02-19T21:11:33.347Z,6.63
2023-02-19T21:14:00.188Z,4.50
2023-02-19T21:16:28.766Z,6.37
2023-02-19T21:18:55.890Z,9.07
2023-02-19T21:21:25.446Z,7.88
2023-02-19T21:23:56.615Z,8.15
2023-02-19T21:26:24.416Z,5.78
2023-02-19T21:28:51.987Z,5.63
2023-02-19T21:31:19.777Z,6.72
2023-02-19T21:33:47.014Z,5.72
2023-02-19T21:36:14.730Z,5.55
2023-02-19T21:38:41.443Z,7.63
2023-02-19T21:41:08.179Z,8.80
2023-02-19T21:43:34.882Z,6.47
2023-02-19T21:46:01.722Z,6.68
2023-02-19T21:48:28.487Z,6.78
2023-02-19T21:50:55.211Z,3.95
2023-02-19T21:53:21.908Z,5.03
2023-02-19T21:55:58.297Z,5.20
2023-02-19T21:58:26.205Z,6.97
2023-02-19T22:00:54.009Z,4.32
2023-02-19T22:03:21.053Z,6.07
2023-02-19T22:05:47.778Z,6.90
2023-02-19T22:08:15.849Z,5.30
2023-02-19T22:10:42.864Z,7.45
2023-02-19T22:13:10.432Z,6.93
2023-02-19T22:15:37.495Z,6.07
2023-02-19T22:18:04.511Z,7.80
2023-02-19T22:20:31.229Z,12.25
2023-02-19T22:22:57.941Z,5.10
2023-02-19T22:25:24.636Z,6.78
2023-02-19T22:27:51.398Z,8.30
2023-02-19T22:30:18.249Z,6.50
2023-02-19T22:32:45.004Z,12.05
2023-02-19T22:35:11.889Z,8.35
2023-02-19T22:37:38.846Z,8.30
2023-02-19T22:40:06.216Z,6.70
2023-02-19T22:42:35.682Z,7.33
2023-02-19T22:45:02.846Z,5.60
2023-02-19T22:47:29.666Z,7.28
2023-02-19T22:49:56.438Z,9.52
2023-02-19T22:52:27.908Z,6.65
2023-02-19T22:54:55.682Z,8.13
2023-02-19T22:57:22.564Z,6.72
2023-02-19T22:59:49.546Z,8.40
2023-02-19T23:02:16.633Z,8.05
2023-02-19T23:04:43.591Z,7.00
2023-02-19T23:07:10.344Z,6.93
2023-02-19T23:09:37.082Z,7.60
2023-02-19T23:12:09.543Z,10.50
2023-02-19T23:14:37.618Z,10.50
2023-02-19T23:17:04.476Z,9.10
2023-02-19T23:19:31.944Z,10.70
2023-02-19T23:21:58.804Z,9.50
2023-02-19T23:24:25.505Z,6.97
2023-02-19T23:26:53.156Z,8.75
2023-02-19T23:29:24.382Z,9.63
2023-02-19T23:31:54.332Z,11.03
2023-02-19T23:34:22.209Z,10.57
2023-02-19T23:36:50.415Z,9.48
2023-02-19T23:39:19.731Z,11.82
2023-02-19T23:41:54.841Z,11.25
2023-02-19T23:44:24.517Z,12.33
2023-02-19T23:46:52.217Z,11.25
2023-02-19T23:49:19.286Z,10.35
2023-02-19T23:51:46.128Z,8.45
2023-02-19T23:54:13.075Z,9.50
2023-02-19T23:56:39.981Z,12.83
2023-02-19T23:59:06.942Z,12.68
